Thulani Grobler

Olheiro-Chefe - Bloemfontein Celtic
23 Abr 2028
Domingo
Processo

Personalidade

Adaptabilidade (6) Ambição (5) Controvérsia (2) Lealdade (17) Pressão (9) Profissionalismo (19) Espírito Esportivo (6) Temperamento (15)

Perfil

Estilo de Treinamento Democrático
Licença Continental C
Determinação 10
Gestão de Pessoas 6
Motivação 5
Disciplina 10
Satisfação no Trabalho
100%
Fadiga
0%
Função Olheiro-Chefe
Salário 32.5K p/s
Contrato 14.03.2030

Desempenho

Comportamento Bom
Eficácia do Treinamento
34%
Desenvolvimento do Jogador
20%
Prevenção de Lesões
20%
Implementação Tática
50%

Eventos Recentes

Participou de uma reunião de recrutamento agora
Participou de uma reunião de recrutamento 7d atrás
Participou de uma reunião de recrutamento 7d atrás
Recomendou um alvo de transferência 7d atrás
Participou de uma reunião de recrutamento 14d atrás
Participou de uma reunião de recrutamento 14d atrás
Recomendou um alvo de transferência 14d atrás
Recomendou um alvo de transferência 21d atrás

Monitorando agora

151
Jogador Clube Status Habilidade Confiança Observado Última observação Último voto
Brandon Thomas-Asante Blackpool Ativo 129 / 123 40% 4 31.01.2028 -
Junaid Sait Bidvest Wits Perdido 91 / 81 76% 1 31.01.2028 Aprovar
Ryan Graydon Salford City Ativo 110 / 98 40% 1 31.01.2028 -
Luis Vázquez Bradford City Ativo 130 / 139 40% 1 31.01.2028 -
Rocco Vata Watford Ativo 131 / 123 40% 2 18.01.2028 -
Daniel Barrea Godoy Cruz Ativo 118 / 126 40% 3 18.01.2028 -
Marco Miori Alvarado Ativo 116 / 116 40% 2 18.01.2028 -
Percy Billiat SuperSport United Perdido 78 / 88 76% 1 17.01.2028 Aprovar
Aaron Collins Milton Keynes Dons Ativo 123 / 114 40% 2 31.12.2027 -
Samuel Anakwe Remo Stars Ativo 102 / 96 40% 6 31.12.2027 -
Ronaldo Peña Deportivo Lara Ativo 106 / 95 40% 1 31.12.2027 -
Jay Stansfield Birmingham Ativo 138 / 123 40% 3 30.12.2027 -
Sunday Megwo Abia Warriors Ativo 107 / 104 40% 9 30.12.2027 -
Auwalu Ali Malam Kano Pillars Ativo 94 / 88 40% 2 30.12.2027 -
Yousef Salech Cardiff City Ativo 131 / 123 40% 3 27.12.2027 -
Henrik Meister Pisa Ativo 138 / 130 40% 1 27.12.2027 -
Jonás Acevedo Instituto Ativo 131 / 125 40% 2 26.12.2027 -
Juan Mendoza Güemes Ativo 102 / 99 40% 3 26.12.2027 -
Sagir Arce Saburtalo Ativo 104 / 102 40% 4 25.12.2027 -
Richard Koné Queens Park Rangers Ativo 124 / 139 40% 3 25.12.2027 -
Umar Ada Nasarawa United Ativo 92 / 91 40% 4 25.12.2027 -
Josephat Lopaga Kakamega Homeboyz Ativo 88 / 96 40% 8 24.12.2027 -
Tommy Conway Middlesbrough Ativo 131 / 133 40% 1 24.12.2027 -
Gianluca Pugliese Güemes Ativo 117 / 100 40% 2 23.12.2027 -
Lisandro Cabrera Maipú Ativo 104 / 123 40% 3 23.12.2027 -
Timothy Zechariah Rivers United Ativo 104 / 104 40% 3 23.12.2027 -
Luca Franco Arsenal Ativo 106 / 118 40% 4 20.12.2027 -
Ismail Sarki Niger Tornadoes Ativo 102 / 101 40% 3 20.12.2027 -
Silko Thomas Rotherham United Ativo 129 / 121 40% 3 19.12.2027 -
Maclyn Biokpo Jenewari Rivers United Ativo 101 / 101 40% 5 17.12.2027 -
César Magallan Estudiantes de Merida Ativo 120 / 112 40% 2 14.12.2027 -
Chisom Orji Warri Wolves Ativo 90 / 87 40% 7 14.12.2027 -
Matías Samaniego Talleres Ativo 110 / 98 40% 1 14.12.2027 -
Rodrigo Bogarín Barracas Central Ativo 114 / 122 40% 1 12.12.2027 -
Samson Olasupo Remo Stars Ativo 104 / 105 40% 4 11.12.2027 -
Alejandro Rincon Llaneros Ativo 101 / 94 40% 4 10.12.2027 -
Chukwuemeka Obioma Abia Warriors Ativo 100 / 95 40% 4 10.12.2027 -
Joseph Atule Barau Ativo 96 / 104 40% 2 09.12.2027 -
William Osula Wrexham Ativo 135 / 133 40% 2 09.12.2027 -
Juan David Rueda Alianza Petrolera Ativo 100 / 108 40% 2 08.12.2027 -
Stanley Amon Bayelsa United Ativo 83 / 103 40% 8 08.12.2027 -
Favio Cabral Mitre Ativo 110 / 122 40% 7 06.12.2027 -
Germán Cervera Alvarado Ativo 94 / 101 40% 2 06.12.2027 -
Facundo Krüger Temperley Ativo 120 / 104 40% 3 05.12.2027 -
Shuaibu Ibrahim Wikki Tourists Ativo 96 / 86 40% 3 05.12.2027 -
José Balza Deportivo Tachira Ativo 108 / 97 40% 1 05.12.2027 -
Augustine Nwaorisa Enyimba Ativo 91 / 93 40% 3 04.12.2027 -
Enzo González Defensores Ativo 117 / 101 40% 1 03.12.2027 -
Ibrahim Yahaya Barau Ativo 82 / 84 40% 3 02.12.2027 -
Okardi Inikurogha Bayelsa United Ativo 94 / 81 40% 3 02.12.2027 -
Lautaro Gordillo Colegiales Ativo 102 / 114 40% 2 28.11.2027 -
José Barreto Quilmes Ativo 106 / 106 40% 1 28.11.2027 -
Dor Turgeman Rubin Ativo 127 / 140 40% 2 26.11.2027 -
Santiago Sala Güemes Ativo 110 / 119 40% 3 25.11.2027 -
Matías Vargas Gimnasia y Esgrima Ativo 129 / 129 40% 1 24.11.2027 -
Morgan Whittaker Bristol Rovers Ativo 137 / 140 40% 1 20.11.2027 -
Augusto Berrondo Tristán Suárez Ativo 107 / 116 40% 3 19.11.2027 -
Sebastián Cocimano Nueva Chicago Ativo 114 / 118 40% 3 17.11.2027 -
Adalberto Peñaranda Deportivo Tachira Ativo 122 / 118 40% 2 14.11.2027 -
Santiago Rodríguez Gimnasia y Esgrima Ativo 116 / 117 40% 2 13.11.2027 -
James Emo Rangers International Ativo 81 / 91 40% 1 08.11.2027 -
Abubakar Garba Nasarawa United Ativo 87 / 101 40% 2 05.11.2027 -
Chineme Chinonso Ikorodu City Ativo 99 / 88 40% 3 04.11.2027 -
Maren Kefas Plateau United Ativo 104 / 101 40% 2 03.11.2027 -
Waheed Adebayo Rangers International Ativo 85 / 90 40% 2 02.11.2027 -
Ezekiel Edidiong Enyimba Ativo 96 / 100 40% 1 31.10.2027 -
Kingsley Maduforo Enyimba Ativo 91 / 94 40% 3 25.10.2027 -
Mauricio Márquez Caracas Ativo 116 / 109 40% 2 25.10.2027 -
Sergio Riffo Kolkheti Ativo 90 / 96 40% 1 23.10.2027 -
Renzo Reynaga Patronato Ativo 106 / 110 40% 1 23.10.2027 -
Tomás Fernández Aldosivi Ativo 125 / 119 40% 1 22.10.2027 -
Alexander Díaz Deportivo Riestra Ativo 126 / 126 40% 1 20.10.2027 -
Joel Orlando Almagro Ativo 104 / 128 40% 1 18.10.2027 -
Oke Kayode Bendel Insurance Ativo 83 / 100 40% 1 06.10.2027 -
Prince Nxumalo University of Pretoria Ativo 103 / 103 52% 1 / 1m 08.09.2027 -
Ronaldo Maarman University of Pretoria Ativo 116 / 116 42% 1 / 1m 08.09.2027 -
Seth Green Orlando Pirates Ativo 97 / 92 72% 1 23.08.2027 Aprovar
Aidomo Emakhu Oxford United Ativo 136 / 118 40% 2 06.08.2027 -
Sam Bell Bristol City Ativo 123 / 125 40% 3 06.08.2027 -
Germán Valera Elche Ativo 146 / 141 40% 1 06.08.2027 -
Matty Stevens AFC Wimbledon Ativo 115 / 96 40% 4 05.08.2027 -
Elijah Adebayo Luton Town Ativo 129 / 130 40% 2 05.08.2027 -
Josh Coburn Millwall Ativo 125 / 116 40% 3 04.08.2027 -
Sam Nombe Milton Keynes Dons Ativo 112 / 106 40% 3 03.08.2027 -
Stephen Humphrys Bradford City Ativo 119 / 114 40% 3 03.08.2027 -
Marezi Portsmouth Ativo 132 / 115 40% 2 26.07.2027 -
Sam Greenwood Bristol City Ativo 127 / 117 40% 1 25.07.2027 -
Mees Rijks Bristol Rovers Ativo 120 / 117 40% 1 24.07.2027 -
Brandon Hanlan Doncaster Rovers Ativo 100 / 111 40% 3 23.07.2027 -
Jaze Kabia Grimsby Town Ativo 92 / 109 40% 1 23.07.2027 -
Christian Saydee Wigan Athletic Ativo 122 / 116 40% 1 22.07.2027 -
Augustus Kargbo Blackburn Rovers Ativo 111 / 119 40% 1 21.07.2027 -
Aaron Drinan Swindon Town Ativo 116 / 93 40% 1 21.07.2027 -
Lorent Tolaj Plymouth Argyle Ativo 130 / 122 40% 1 20.07.2027 -
Fábio Tavares Burton Albion Ativo 102 / 111 40% 2 06.07.2027 -
Tyreece Campbell Charlton Athletic Ativo 122 / 125 40% 1 28.06.2027 -
Hlompho Mkhize Black Aces Ativo 97 / 106 40% 2 31.12.2026 -
Ryder Matos Hibernians Ativo 97 / 85 40% 5 29.12.2026 -
Gbolahan Salami CotonTchad Ativo 86 / 97 40% 2 29.12.2026 -
Damir Céter Hamrun Spartans Ativo 105 / 96 40% 2 22.12.2026 -
Evidence Makgopa Orlando Pirates Ativo 108 / 117 40% 4 17.12.2026 -
Slobodan Tedić Akron Ativo 109 / 100 40% 1 17.12.2026 -
Robert Murić Floriana Ativo 103 / 98 40% 2 16.12.2026 -
Jurgen Degabriele Hibernians Ativo 84 / 81 40% 1 16.12.2026 -
Mohamed Konaté Akhmat Grozny Ativo 108 / 114 40% 2 14.12.2026 -
Denzel Jubitana Neftchi Ativo 120 / 122 40% 2 14.12.2026 -
Patrick Schmidt Tarxien Rainbows Ativo 92 / 95 40% 2 11.12.2026 -
Fernandinho Sliema Wanderers Ativo 95 / 86 40% 1 08.12.2026 -
Kagiso Malinga Jomo Cosmos Ativo 100 / 95 40% 1 07.12.2026 -
Matej Poplatnik Ativo 106 / 100 40% 3 03.12.2026 -
Etiosa Ighodaro Kaizer Chiefs Ativo 117 / 111 40% 2 02.12.2026 -
Franklin Sasere Birkirkara Ativo 87 / 103 40% 2 30.11.2026 -
Brayan Gil Baltika Ativo 128 / 109 40% 1 29.11.2026 -
Uroš Đuranović Sliema Wanderers Ativo 103 / 89 40% 3 25.11.2026 -
Miloš Jovičić Zabbar St. Patrick Ativo 100 / 99 40% 1 20.11.2026 -
Ioannis Pittas CSKA Sofia Ativo 122 / 118 40% 1 19.11.2026 -
Tio Cipot NK Maribor Ativo 123 / 126 40% 1 15.11.2026 -
Daniel Udoh Salford City Ativo 92 / 93 40% 2 13.11.2026 -
Bruno Gomes Valletta Ativo 88 / 95 40% 2 13.11.2026 -
Armstrong Oko-Flex Levski Ativo 116 / 123 40% 1 12.11.2026 -
Peter Valjent FK Senica Ativo 106 / 125 40% 3 05.11.2026 -
Nikos Karelis Ativo 107 / 103 40% 1 03.11.2026 -
Erick Dolly Black Aces Ativo 104 / 111 40% 2 02.11.2026 Mais informações
Isaac Matondo Koper Ativo 107 / 108 40% 1 02.11.2026 -
Marcus Browne AFC Wimbledon Ativo 100 / 92 40% 1 30.10.2026 -
Kekuta Manneh Samtredia Ativo 82 / 83 40% 2 28.10.2026 -
Samuel Ayanrinde KCB Ativo 91 / 86 40% 1 27.10.2026 -
Bongani Khune SuperSport United Ativo 127 / 130 40% 5 25.10.2026 -
Elliot Collier Saburtalo Ativo 108 / 86 40% 2 25.10.2026 -
Peter Shalulile Mamelodi Sundowns Ativo 129 / 138 40% 7 24.10.2026 -
Hakeeb Adelakun Doncaster Rovers Ativo 101 / 109 40% 2 16.10.2026 -
Will Davies Fleetwood Town Ativo 102 / 103 40% 2 15.10.2026 -
Alassana Jatta Notts County Ativo 94 / 114 40% 1 15.10.2026 -
Hansel Ochieng APS Bomet Ativo 73 / 76 40% 1 07.10.2026 -
Joseph Mwangi Kariobangi Sharks Ativo 75 / 86 40% 1 06.10.2026 -
Paul Glatzel Swindon Town Ativo 88 / 91 40% 2 05.10.2026 -
Tyshick Mosengo Kenya Police Ativo 88 / 74 40% 1 21.09.2026 -
Israel Emmanuel Hamrun Spartans Ativo 82 / 91 40% 1 17.09.2026 -
Ramiro Ruiz Rodríguez Atlético Tucumán Ativo 131 / 114 40% 1 16.09.2026 -
Will Dickson Chesterfield Ativo 97 / 93 40% 1 16.09.2026 -
Paul Mbong Floriana Ativo 100 / 84 40% 1 11.09.2026 -
Louie Marsh Sheffield United Ativo 103 / 90 40% 1 09.09.2026 -
Enosh Ochieng Ativo 83 / 86 40% 1 08.09.2026 -
Eric Kapaito Tusker Ativo 91 / 89 40% 1 08.09.2026 -
Clinton Omondi Ulinzi Stars Ativo 76 / 84 40% 1 07.09.2026 -
David Sakwa Bandari Ativo 72 / 75 40% 1 07.09.2026 -
Lebo Mothiba Mamelodi Sundowns Ativo 119 / 111 40% 1 07.09.2026 -
James Norwood Fleetwood Town Ativo 68 / 91 40% 1 25.08.2026 -
Tomáš Souček West Ham United Ativo 142 / 129 40% 1 01.08.2026 -
Dwight McNeil Crystal Palace Ativo 140 / 149 40% 1 01.08.2026 -
Elliot Lee Wrexham Ativo 101 / 121 40% 1 01.08.2026 -